Hanjin Philadelphia — A8CN8 — position and weather

sailwx.info

Track history (hours):
 
Tides and Currents Weather Stations Pressure Air Temp Water Temp Dewpoint Dewpoint Depression Visibility Wind Speed Wind Dir Waves Ship Positions

Hanjin Philadelphia

Last reported at 2014-Sep-29 13:33 UTC. Time now 2014-Sep-30 10:10 UTC.
Position N 29°13' E 122°30'.

Length 282.1 m; beam 32.2 m; draft 13 m.

Type: Ship. MMSI: 636090670.

Date/timePositionNaut miles runAvg speedWind from/ knotsBaromVisibWave heightAir tempDewpointWater temp
2014-Sep-29 13:33N 29°13' E 122°30'1514.7
2014-Sep-29 12:34N 29°28' E 122°30'1312.6
2014-Sep-29 11:32N 29°40' E 122°27'1212.6
2014-Sep-29 10:33N 29°48' E 122°15'1211.8
2014-Sep-29 09:33N 29°55' E 122°05'1111.2
2014-Sep-29 08:33N 29°56' E 121°52'0 0.0
2014-Sep-29 07:30N 29°56' E 121°52'0 0.0
2014-Sep-29 06:30N 29°56' E 121°52'0 0.0
2014-Sep-29 05:27N 29°56' E 121°52'0 0.0
2014-Sep-29 03:18N 29°56' E 121°52'0 0.0
2014-Sep-29 02:18N 29°56' E 121°52'0 0.0
2014-Sep-29 01:24N 29°56' E 121°52'0 0.0
2014-Sep-29 00:06N 29°56' E 121°52'0 0.0
2014-Sep-28 23:21N 29°56' E 121°52'0 0.0
2014-Sep-28 22:33N 29°56' E 121°52'0 0.0
2014-Sep-28 21:30N 29°56' E 121°52'4 4.3
2014-Sep-28 20:34N 29°57' E 121°57'1312.9
2014-Sep-28 19:33N 29°54' E 122°11'1111.1
2014-Sep-28 18:33N 29°45' E 122°19'8 8.4
2014-Sep-28 17:33N 29°43' E 122°28'8 7.7
2014-Sep-28 16:33N 29°43' E 122°37'1010.5
2014-Sep-28 15:33N 29°45' E 122°49'1514.5
2014-Sep-28 14:33N 29°56' E 123°00'1514.8
2014-Sep-28 13:33N 30°09' E 123°06'1313.4
2014-Sep-28 12:33N 30°22' E 123°03'1313.2
2014-Sep-28 11:32N 30°36' E 123°04'1313.5
2014-Sep-28 10:32N 30°49' E 123°01'1312.4
2014-Sep-28 09:31N 31°01' E 122°55'1512.8
2014-Sep-28 08:21N 31°05' E 122°39'1012.8
2014-Sep-28 07:33N 31°06' E 122°27'2914.0
2014-Sep-28 05:30N 31°15' E 121°55'1314.2
2014-Sep-28 04:33N 31°20' E 121°41'1 0.6
2014-Sep-28 02:19N 31°20' E 121°39'0 0.0
2014-Sep-28 00:31N 31°20' E 121°39'0 0.0
2014-Sep-27 16:25N 31°20' E 121°39'0 0.0
2014-Sep-27 13:25N 31°20' E 121°39'0 0.0
2014-Sep-27 12:31N 31°20' E 121°39'0 0.0
2014-Sep-27 09:13N 31°20' E 121°39'0 0.0
2014-Sep-27 08:13N 31°20' E 121°39'0 0.0
2014-Sep-27 07:25N 31°20' E 121°39'0 0.0
2014-Sep-27 06:31N 31°20' E 121°39'3 3.3
2014-Sep-27 05:33N 31°20' E 121°43'10 9.7
2014-Sep-27 04:34N 31°16' E 121°53'30 9.9
2014-Sep-27 01:30N 31°07' E 122°27'9 8.9
2014-Sep-27 00:31N 31°08' E 122°37'1 0.2
2014-Sep-26 20:21N 31°09' E 122°37'0 0.1
2014-Sep-26 15:33N 31°10' E 122°37'2 0.1
2014-Sep-25 13:33N 31°08' E 122°38'1110.6
2014-Sep-25 12:30N 31°07' E 122°51'1712.8
2014-Sep-25 11:09N 30°51' E 122°58'813.9
2014-Sep-25 10:33N 30°43' E 123°01'1414.2
2014-Sep-25 09:33N 30°29' E 123°04'1514.5
2014-Sep-25 08:33N 30°15' E 123°02'1414.5
2014-Sep-25 07:33N 30°00' E 123°04'1514.9
2014-Sep-25 06:31N 29°45' E 123°04'1415.0
2014-Sep-25 05:33N 29°31' E 123°04'3315.5
2014-Sep-25 03:26N 28°59' E 122°52'3416.3
2014-Sep-25 01:22N 28°28' E 122°38'1615.6
2014-Sep-25 00:20N 28°13' E 122°31'24915.7
2014-Sep-24 08:32N 24°53' E 119°46'3416.5
2014-Sep-24 06:29N 24°31' E 119°17'2215.9
2014-Sep-24 05:08N 24°17' E 118°59'2515.3
2014-Sep-24 03:30N 24°03' E 118°37'1614.7
2014-Sep-24 02:27N 23°52' E 118°25'1415.4
2014-Sep-24 01:31N 23°44' E 118°12'2321.3
2014-Sep-24 00:26N 23°29' E 117°52'21816.5
2014-Sep-23 11:11N 22°10' E 114°12'5 8.8
2014-Sep-23 10:34N 22°14' E 114°08'6 5.7
2014-Sep-23 09:31N 22°20' E 114°07'0 0.3
2014-Sep-23 08:13N 22°20' E 114°07'0 0.0
2014-Sep-23 07:25N 22°20' E 114°07'0 0.0
2014-Sep-23 06:31N 22°20' E 114°07'0 0.0
2014-Sep-23 04:31N 22°20' E 114°07'0 0.0
2014-Sep-23 03:31N 22°20' E 114°07'0 0.0
2014-Sep-23 02:19N 22°20' E 114°07'0 0.0
2014-Sep-23 01:25N 22°20' E 114°07'0 0.0
2014-Sep-23 00:31N 22°20' E 114°07'0 0.0
2014-Sep-22 23:31N 22°20' E 114°07'1 0.6
2014-Sep-22 22:33N 22°20' E 114°07'10 8.5
2014-Sep-22 21:25N 22°11' E 114°12'  
Track history (hours):
 
Tides and Currents Weather Stations Pressure Air Temp Water Temp Dewpoint Dewpoint Depression Visibility Wind Speed Wind Dir Waves Ship Positions

Hanjin Philadelphia

Last reported at 2014-Sep-29 13:33 UTC. Time now 2014-Sep-30 10:10 UTC.
Position N 29°13' E 122°30'.

Length 282.1 m; beam 32.2 m; draft 13 m.

Type: Ship. MMSI: 636090670.

Date/timePositionNaut miles runAvg speedWind from/ knotsBaromVisibWave heightAir tempDewpointWater temp
2014-Sep-29 13:33N 29°13' E 122°30'1514.7
2014-Sep-29 12:34N 29°28' E 122°30'1312.6
2014-Sep-29 11:32N 29°40' E 122°27'1212.6
2014-Sep-29 10:33N 29°48' E 122°15'1211.8
2014-Sep-29 09:33N 29°55' E 122°05'1111.2
2014-Sep-29 08:33N 29°56' E 121°52'0 0.0
2014-Sep-29 07:30N 29°56' E 121°52'0 0.0
2014-Sep-29 06:30N 29°56' E 121°52'0 0.0
2014-Sep-29 05:27N 29°56' E 121°52'0 0.0
2014-Sep-29 03:18N 29°56' E 121°52'0 0.0
2014-Sep-29 02:18N 29°56' E 121°52'0 0.0
2014-Sep-29 01:24N 29°56' E 121°52'0 0.0
2014-Sep-29 00:06N 29°56' E 121°52'0 0.0
2014-Sep-28 23:21N 29°56' E 121°52'0 0.0
2014-Sep-28 22:33N 29°56' E 121°52'0 0.0
2014-Sep-28 21:30N 29°56' E 121°52'4 4.3
2014-Sep-28 20:34N 29°57' E 121°57'1312.9
2014-Sep-28 19:33N 29°54' E 122°11'1111.1
2014-Sep-28 18:33N 29°45' E 122°19'8 8.4
2014-Sep-28 17:33N 29°43' E 122°28'8 7.7
2014-Sep-28 16:33N 29°43' E 122°37'1010.5
2014-Sep-28 15:33N 29°45' E 122°49'1514.5
2014-Sep-28 14:33N 29°56' E 123°00'1514.8
2014-Sep-28 13:33N 30°09' E 123°06'1313.4
2014-Sep-28 12:33N 30°22' E 123°03'1313.2
2014-Sep-28 11:32N 30°36' E 123°04'1313.5
2014-Sep-28 10:32N 30°49' E 123°01'1312.4
2014-Sep-28 09:31N 31°01' E 122°55'1512.8
2014-Sep-28 08:21N 31°05' E 122°39'1012.8
2014-Sep-28 07:33N 31°06' E 122°27'2914.0
2014-Sep-28 05:30N 31°15' E 121°55'1314.2
2014-Sep-28 04:33N 31°20' E 121°41'1 0.6
2014-Sep-28 02:19N 31°20' E 121°39'0 0.0
2014-Sep-28 00:31N 31°20' E 121°39'0 0.0
2014-Sep-27 16:25N 31°20' E 121°39'0 0.0
2014-Sep-27 13:25N 31°20' E 121°39'0 0.0
2014-Sep-27 12:31N 31°20' E 121°39'0 0.0
2014-Sep-27 09:13N 31°20' E 121°39'0 0.0
2014-Sep-27 08:13N 31°20' E 121°39'0 0.0
2014-Sep-27 07:25N 31°20' E 121°39'0 0.0
2014-Sep-27 06:31N 31°20' E 121°39'3 3.3
2014-Sep-27 05:33N 31°20' E 121°43'10 9.7
2014-Sep-27 04:34N 31°16' E 121°53'30 9.9
2014-Sep-27 01:30N 31°07' E 122°27'9 8.9
2014-Sep-27 00:31N 31°08' E 122°37'1 0.2
2014-Sep-26 20:21N 31°09' E 122°37'0 0.1
2014-Sep-26 15:33N 31°10' E 122°37'2 0.1
2014-Sep-25 13:33N 31°08' E 122°38'1110.6
2014-Sep-25 12:30N 31°07' E 122°51'1712.8
2014-Sep-25 11:09N 30°51' E 122°58'813.9
2014-Sep-25 10:33N 30°43' E 123°01'1414.2
2014-Sep-25 09:33N 30°29' E 123°04'1514.5
2014-Sep-25 08:33N 30°15' E 123°02'1414.5
2014-Sep-25 07:33N 30°00' E 123°04'1514.9
2014-Sep-25 06:31N 29°45' E 123°04'1415.0
2014-Sep-25 05:33N 29°31' E 123°04'3315.5
2014-Sep-25 03:26N 28°59' E 122°52'3416.3
2014-Sep-25 01:22N 28°28' E 122°38'1615.6
2014-Sep-25 00:20N 28°13' E 122°31'24915.7
2014-Sep-24 08:32N 24°53' E 119°46'3416.5
2014-Sep-24 06:29N 24°31' E 119°17'2215.9
2014-Sep-24 05:08N 24°17' E 118°59'2515.3
2014-Sep-24 03:30N 24°03' E 118°37'1614.7
2014-Sep-24 02:27N 23°52' E 118°25'1415.4
2014-Sep-24 01:31N 23°44' E 118°12'2321.3
2014-Sep-24 00:26N 23°29' E 117°52'21816.5
2014-Sep-23 11:11N 22°10' E 114°12'5 8.8
2014-Sep-23 10:34N 22°14' E 114°08'6 5.7
2014-Sep-23 09:31N 22°20' E 114°07'0 0.3
2014-Sep-23 08:13N 22°20' E 114°07'0 0.0
2014-Sep-23 07:25N 22°20' E 114°07'0 0.0
2014-Sep-23 06:31N 22°20' E 114°07'0 0.0
2014-Sep-23 04:31N 22°20' E 114°07'0 0.0
2014-Sep-23 03:31N 22°20' E 114°07'0 0.0
2014-Sep-23 02:19N 22°20' E 114°07'0 0.0
2014-Sep-23 01:25N 22°20' E 114°07'0 0.0
2014-Sep-23 00:31N 22°20' E 114°07'0 0.0
2014-Sep-22 23:31N 22°20' E 114°07'1 0.6
2014-Sep-22 22:33N 22°20' E 114°07'10 8.5
2014-Sep-22 21:25N 22°11' E 114°12'  

Dump ship's entire track history